Time;durP1;ratioP1;P1;durP2;ratioP2;P2;SDS_P1;SDS_P2;PMS_P1;PMS_P2;Temp;Humidity;BMP_temperature;BMP_pressure;BME280_temperature;BME280_humidity;BME280_pressure;Samples;Min_cycle;Max_cycle;Signal;HPM_P1;HPM_P2
2022/04/24 00:01:40;;;;;;;14.87;12.73;;;;;;;8.40;100.00;94789.84;5034316;28;20471;-75
2022/04/24 00:04:07;;;;;;;15.17;13.57;;;;;;;8.47;100.00;94809.16;5036654;28;20482;-75
2022/04/24 00:06:34;;;;;;;14.03;12.63;;;;;;;8.63;100.00;94830.13;5055410;28;20423;-75
2022/04/24 00:09:01;;;;;;;17.87;14.27;;;;;;;8.72;100.00;94841.22;5051519;28;20555;-74
2022/04/24 00:11:30;;;;;;;15.40;13.70;;;;;;;8.64;100.00;94836.91;5034415;28;20489;-75
2022/04/24 00:13:57;;;;;;;16.27;14.23;;;;;;;8.58;100.00;94825.94;5051986;28;20518;-75
2022/04/24 00:16:23;;;;;;;15.33;13.77;;;;;;;8.43;100.00;94782.00;5034118;28;20439;-75
2022/04/24 00:18:50;;;;;;;15.20;13.23;;;;;;;8.39;100.00;94775.91;5034125;28;20494;-75
2022/04/24 00:21:17;;;;;;;15.27;13.43;;;;;;;8.46;100.00;94791.84;5033775;28;20458;-75
2022/04/24 00:23:43;;;;;;;16.87;14.90;;;;;;;8.19;100.00;94740.94;5033930;28;20436;-75
2022/04/24 00:26:10;;;;;;;14.60;12.03;;;;;;;8.57;100.00;94789.41;5051665;28;20463;-75
2022/04/24 00:28:37;;;;;;;16.37;13.50;;;;;;;8.47;100.00;94777.56;5033573;28;20467;-75
2022/04/24 00:31:03;;;;;;;15.93;13.30;;;;;;;8.51;100.00;94774.97;5033768;28;20435;-75
2022/04/24 00:33:30;;;;;;;16.60;13.53;;;;;;;8.25;100.00;94738.78;5038720;28;20955;-74
2022/04/24 00:35:57;;;;;;;16.23;13.97;;;;;;;8.32;100.00;94733.63;5033618;28;20476;-74
2022/04/24 00:38:23;;;;;;;17.73;14.50;;;;;;;8.45;100.00;94750.81;5033588;28;20435;-75
2022/04/24 00:40:50;;;;;;;16.90;13.73;;;;;;;8.23;100.00;94712.03;5033604;28;20503;-75
2022/04/24 00:43:18;;;;;;;15.77;14.13;;;;;;;8.23;100.00;94720.69;5033774;28;21005;-75
2022/04/24 00:46:18;;;;;;;17.87;15.73;;;;;;;8.31;100.00;94734.75;5036689;28;20898;-75
2022/04/24 00:48:44;;;;;;;18.87;15.50;;;;;;;8.25;100.00;94733.50;5020850;28;20820;-75
2022/04/24 00:51:12;;;;;;;19.90;16.50;;;;;;;8.24;100.00;94732.75;5050038;28;20962;-75
2022/04/24 00:53:39;;;;;;;17.10;14.60;;;;;;;8.33;100.00;94734.41;5033399;28;20797;-75
2022/04/24 00:56:06;;;;;;;21.73;14.53;;;;;;;7.98;100.00;94693.94;5051213;28;20431;-75
2022/04/24 00:58:33;;;;;;;16.37;14.00;;;;;;;8.30;100.00;94751.66;5033126;28;20485;-75
2022/04/24 01:01:00;;;;;;;19.37;16.30;;;;;;;8.03;100.00;94711.34;5050957;28;20503;-75
2022/04/24 01:03:28;;;;;;;17.80;13.80;;;;;;;7.88;100.00;94699.78;5033428;28;20458;-74
2022/04/24 01:05:55;;;;;;;17.80;15.87;;;;;;;8.15;100.00;94728.84;5051258;28;20442;-75
2022/04/24 01:08:22;;;;;;;21.20;14.83;;;;;;;8.11;100.00;94733.25;5049854;28;20865;-75
2022/04/24 01:10:49;;;;;;;15.97;14.30;;;;;;;8.17;100.00;94734.50;5049420;28;20453;-75
2022/04/24 01:13:15;;;;;;;18.47;14.50;;;;;;;8.08;100.00;94718.16;5033323;28;20517;-75
2022/04/24 01:15:42;;;;;;;18.03;15.90;;;;;;;8.03;100.00;94706.06;5033110;28;20451;-75
2022/04/24 01:18:10;;;;;;;20.67;14.83;;;;;;;7.78;100.00;94670.66;5033421;28;20538;-75
2022/04/24 01:20:36;;;;;;;20.80;14.93;;;;;;;7.85;100.00;94679.41;5050824;28;20471;-75
2022/04/24 01:23:04;;;;;;;17.83;14.97;;;;;;;7.97;100.00;94705.56;5033328;28;21002;-75
2022/04/24 01:25:30;;;;;;;19.03;15.27;;;;;;;7.72;100.00;94672.78;5033200;28;20845;-75
2022/04/24 01:27:57;;;;;;;15.30;13.07;;;;;;;7.78;100.00;94681.94;5033426;28;20526;-74
2022/04/24 01:30:24;;;;;;;18.60;14.60;;;;;;;7.74;100.00;94677.69;5032949;28;20491;-75
2022/04/24 01:32:50;;;;;;;18.83;15.73;;;;;;;7.76;100.00;94686.03;5049616;28;20446;-75
2022/04/24 01:35:18;;;;;;;16.47;14.50;;;;;;;7.94;100.00;94716.03;5032941;28;20439;-75
2022/04/24 01:37:44;;;;;;;18.00;12.67;;;;;;;7.64;100.00;94679.03;5050437;28;20923;-75
2022/04/24 01:40:11;;;;;;;19.77;14.53;;;;;;;7.78;100.00;94675.91;5036884;28;20509;-75
2022/04/24 01:42:38;;;;;;;14.73;13.20;;;;;;;7.92;100.00;94703.25;5037025;28;20927;-75
2022/04/24 01:45:05;;;;;;;17.07;15.27;;;;;;;7.63;100.00;94680.91;5036798;28;20525;-75
2022/04/24 01:47:32;;;;;;;15.13;13.03;;;;;;;7.79;100.00;94699.25;5036789;28;20470;-73
2022/04/24 01:49:58;;;;;;;18.77;14.27;;;;;;;7.61;100.00;94687.59;5039808;28;20491;-73
2022/04/24 01:52:25;;;;;;;17.80;15.50;;;;;;;7.58;100.00;94691.69;5045961;28;20521;-73
2022/04/24 01:54:51;;;;;;;14.90;13.30;;;;;;;7.26;100.00;94661.41;5036612;28;20434;-74
2022/04/24 01:57:18;;;;;;;17.50;14.50;;;;;;;7.43;100.00;94676.75;5054643;28;20455;-74
2022/04/24 01:59:45;;;;;;;15.77;13.33;;;;;;;7.47;100.00;94698.63;5036565;28;20463;-73
2022/04/24 02:02:11;;;;;;;19.43;13.37;;;;;;;7.35;100.00;94690.88;5054624;28;20477;-74
2022/04/24 02:04:38;;;;;;;16.13;13.43;;;;;;;7.43;100.00;94703.06;5036494;28;20458;-74
2022/04/24 02:07:06;;;;;;;19.57;15.60;;;;;;;7.07;100.00;94649.75;5036425;28;20493;-74
2022/04/24 02:09:33;;;;;;;17.10;13.03;;;;;;;7.23;100.00;94691.00;5052987;28;20554;-74
2022/04/24 02:12:00;;;;;;;14.80;12.87;;;;;;;7.25;100.00;94705.31;5054568;28;20443;-74
2022/04/24 02:14:27;;;;;;;16.57;13.77;;;;;;;6.87;100.00;94652.72;5054346;28;20481;-74
2022/04/24 02:16:53;;;;;;;18.27;14.00;;;;;;;7.17;100.00;94698.38;5036526;28;20489;-74
2022/04/24 02:19:20;;;;;;;14.80;13.30;;;;;;;6.98;100.00;94670.22;5036334;28;20843;-73
2022/04/24 02:21:47;;;;;;;15.60;13.30;;;;;;;7.03;100.00;94677.06;5019770;28;20512;-74
2022/04/24 02:24:13;;;;;;;14.93;13.33;;;;;;;6.96;100.00;94674.31;5016537;28;20522;-74
2022/04/24 02:26:40;;;;;;;16.83;13.70;;;;;;;6.99;100.00;94682.25;5042186;28;20480;-74
2022/04/24 02:29:07;;;;;;;15.67;13.77;;;;;;;7.03;100.00;94695.47;5036033;28;20503;-74
2022/04/24 02:31:33;;;;;;;15.03;13.43;;;;;;;6.88;100.00;94673.38;5036265;28;20530;-74
2022/04/24 02:34:01;;;;;;;14.60;12.47;;;;;;;6.90;100.00;94675.66;5036200;28;20494;-74
2022/04/24 02:36:27;;;;;;;17.50;15.53;;;;;;;6.97;100.00;94673.97;5052712;28;20423;-74
2022/04/24 02:38:54;;;;;;;17.80;14.53;;;;;;;6.73;100.00;94646.06;5040598;28;20463;-74
2022/04/24 02:41:20;;;;;;;14.87;13.20;;;;;;;6.71;100.00;94643.03;5035841;28;20521;-74
2022/04/24 02:43:47;;;;;;;17.57;13.70;;;;;;;6.30;100.00;94593.72;5052606;28;20431;-74
2022/04/24 02:46:13;;;;;;;14.77;13.20;;;;;;;6.93;100.00;94669.72;5052464;28;20486;-73
2022/04/24 02:48:41;;;;;;;18.30;14.50;;;;;;;6.65;100.00;94630.47;5039235;28;20447;-74
2022/04/24 02:51:08;;;;;;;16.57;14.00;;;;;;;6.60;100.00;94633.38;5051761;28;20501;-73
2022/04/24 02:53:34;;;;;;;16.53;14.57;;;;;;;6.77;100.00;94649.50;5042853;28;20452;-73
2022/04/24 02:56:01;;;;;;;19.67;15.30;;;;;;;6.66;100.00;94624.88;5041797;28;20443;-73
2022/04/24 02:58:28;;;;;;;17.20;15.40;;;;;;;6.80;100.00;94637.56;5035827;28;20439;-73
2022/04/24 03:00:56;;;;;;;19.40;16.30;;;;;;;6.82;100.00;94630.13;5036025;28;20536;-74
2022/04/24 03:03:23;;;;;;;17.53;15.00;;;;;;;6.77;100.00;94617.25;5035683;28;20454;-73
2022/04/24 03:05:50;;;;;;;20.23;16.07;;;;;;;6.43;100.00;94574.91;5035696;28;20483;-73
2022/04/24 03:08:18;;;;;;;17.13;15.30;;;;;;;6.78;100.00;94622.16;5053293;28;20481;-74
2022/04/24 03:10:45;;;;;;;18.50;15.77;;;;;;;6.67;100.00;94609.88;5035209;28;20463;-73
2022/04/24 03:13:12;;;;;;;24.03;17.80;;;;;;;6.85;100.00;94605.78;5035364;28;20542;-73
2022/04/24 03:15:39;;;;;;;21.20;17.07;;;;;;;6.92;100.00;94613.03;5053014;28;20510;-73
2022/04/24 03:18:06;;;;;;;24.53;19.60;;;;;;;7.01;100.00;94618.88;5035070;28;20471;-73
2022/04/24 03:20:33;;;;;;;19.57;16.27;;;;;;;7.04;100.00;94618.94;5034604;28;21081;-73
2022/04/24 03:23:00;;;;;;;19.03;17.00;;;;;;;7.06;100.00;94615.94;5035160;28;20538;-75
2022/04/24 03:25:26;;;;;;;19.93;15.87;;;;;;;7.01;100.00;94592.59;5035199;28;20529;-74
2022/04/24 03:27:53;;;;;;;20.37;16.67;;;;;;;7.06;100.00;94602.81;5034897;28;20542;-74
2022/04/24 03:30:20;;;;;;;21.77;17.40;;;;;;;6.94;100.00;94571.41;5035287;28;20900;-74
2022/04/24 03:32:47;;;;;;;21.40;18.47;;;;;;;6.79;100.00;94557.25;5035004;28;20522;-74
2022/04/24 03:35:13;;;;;;;21.27;18.07;;;;;;;7.18;100.00;94615.06;5035136;28;20457;-74
2022/04/24 03:37:42;;;;;;;22.27;18.00;;;;;;;7.21;100.00;94619.63;5035035;28;20526;-74
2022/04/24 03:40:09;;;;;;;24.27;19.87;;;;;;;7.25;100.00;94620.47;5034606;28;20900;-74
2022/04/24 03:42:36;;;;;;;21.73;18.60;;;;;;;7.14;100.00;94601.09;5035014;28;20565;-74
2022/04/24 03:45:06;;;;;;;24.20;19.03;;;;;;;7.29;100.00;94629.16;5034709;28;20538;-74
2022/04/24 03:47:33;;;;;;;19.33;16.60;;;;;;;7.38;100.00;94630.47;5034812;28;20873;-74
2022/04/24 03:50:00;;;;;;;21.93;17.80;;;;;;;7.33;100.00;94616.84;5052619;28;20908;-74
2022/04/24 03:52:26;;;;;;;24.47;19.03;;;;;;;7.27;100.00;94603.22;5034388;28;20440;-74
2022/04/24 03:54:53;;;;;;;23.90;19.13;;;;;;;7.29;100.00;94605.50;5052305;28;20497;-74
2022/04/24 03:57:19;;;;;;;24.43;19.43;;;;;;;7.27;100.00;94608.50;5034483;28;20997;-75
2022/04/24 03:59:46;;;;;;;19.70;17.13;;;;;;;7.27;100.00;94600.59;5034690;28;20452;-75
2022/04/24 04:02:13;;;;;;;24.60;18.90;;;;;;;7.22;100.00;94585.13;5033607;28;20513;-74
2022/04/24 04:04:39;;;;;;;22.13;17.87;;;;;;;7.33;100.00;94609.72;5052483;28;20455;-74
2022/04/24 04:07:07;;;;;;;22.20;17.87;;;;;;;7.48;100.00;94618.66;5052485;28;20455;-74
2022/04/24 04:09:34;;;;;;;22.90;17.63;;;;;;;7.52;100.00;94621.34;5034153;28;21190;-74
2022/04/24 04:12:00;;;;;;;22.43;18.33;;;;;;;7.45;100.00;94619.34;5052375;28;20522;-74
2022/04/24 04:14:27;;;;;;;22.70;18.13;;;;;;;7.33;100.00;94595.81;5034104;28;20527;-74
2022/04/24 04:16:54;;;;;;;20.57;16.97;;;;;;;7.60;100.00;94628.25;5034244;28;20806;-74
2022/04/24 04:19:20;;;;;;;18.93;17.03;;;;;;;7.55;100.00;94610.88;5038533;28;20568;-74
2022/04/24 04:21:48;;;;;;;26.40;20.37;;;;;;;7.49;100.00;94601.78;5039480;28;21096;-74
2022/04/24 04:24:14;;;;;;;23.67;18.27;;;;;;;7.70;100.00;94633.69;5034664;28;20439;-75
2022/04/24 04:26:41;;;;;;;19.63;17.30;;;;;;;7.51;100.00;94604.06;5034327;28;20509;-74
2022/04/24 04:29:08;;;;;;;20.10;18.07;;;;;;;7.59;100.00;94613.56;5033910;28;20534;-74
2022/04/24 04:31:34;;;;;;;21.00;18.20;;;;;;;7.41;100.00;94581.72;5034134;28;20966;-74
2022/04/24 04:34:01;;;;;;;19.27;17.33;;;;;;;7.53;100.00;94605.22;5033908;28;20449;-74
2022/04/24 04:36:29;;;;;;;22.20;17.07;;;;;;;7.83;100.00;94649.31;5034119;28;20458;-74
2022/04/24 04:38:55;;;;;;;19.47;16.20;;;;;;;7.46;100.00;94585.91;5026884;28;20854;-74
2022/04/24 04:41:22;;;;;;;21.17;17.07;;;;;;;7.67;100.00;94615.22;5045357;28;20553;-74
2022/04/24 04:43:49;;;;;;;22.27;18.73;;;;;;;7.80;100.00;94635.00;5033613;28;20526;-74
2022/04/24 04:46:15;;;;;;;21.20;17.10;;;;;;;7.53;100.00;94578.91;5033605;28;20436;-74
2022/04/24 04:48:42;;;;;;;19.80;16.60;;;;;;;7.86;100.00;94635.47;5038691;28;20434;-74
2022/04/24 04:51:08;;;;;;;19.67;17.17;;;;;;;7.76;100.00;94604.50;5051522;28;20546;-74
2022/04/24 04:53:35;;;;;;;20.10;17.70;;;;;;;7.83;100.00;94602.72;5033604;28;20447;-74
2022/04/24 04:56:02;;;;;;;17.37;15.47;;;;;;;7.97;100.00;94631.91;5051391;28;20470;-74
2022/04/24 04:58:29;;;;;;;20.70;17.93;;;;;;;7.97;100.00;94639.03;5049922;28;20431;-74
2022/04/24 05:00:55;;;;;;;21.20;17.87;;;;;;;7.59;100.00;94574.88;5033080;28;21066;-74
2022/04/24 05:03:22;;;;;;;22.53;17.60;;;;;;;7.94;100.00;94616.06;5033393;28;20447;-74
2022/04/24 05:05:49;;;;;;;21.03;17.30;;;;;;;7.89;100.00;94616.38;5033592;28;20518;-74
2022/04/24 05:08:15;;;;;;;22.90;17.17;;;;;;;7.96;100.00;94616.47;5051378;28;20541;-74
2022/04/24 05:10:42;;;;;;;21.93;17.93;;;;;;;7.86;100.00;94591.50;5033076;28;20491;-74
2022/04/24 05:13:10;;;;;;;22.80;16.57;;;;;;;8.17;100.00;94635.25;5032780;28;20661;-74
2022/04/24 05:15:37;;;;;;;22.70;19.30;;;;;;;8.22;100.00;94634.19;5033185;28;20431;-74
2022/04/24 05:18:04;;;;;;;22.37;18.90;;;;;;;8.19;100.00;94619.84;5033297;28;20535;-75
2022/04/24 05:20:30;;;;;;;20.80;17.53;;;;;;;8.38;100.00;94636.69;5033143;28;20978;-74
2022/04/24 05:23:06;;;;;;;22.20;18.50;;;;;;;8.07;100.00;94579.81;5050980;28;20551;-74
2022/04/24 05:25:34;;;;;;;21.53;19.33;;;;;;;8.18;100.00;94586.00;5051295;28;20786;-74
2022/04/24 05:28:03;;;;;;;21.10;18.20;;;;;;;8.41;100.00;94618.31;5033143;28;20475;-74
2022/04/24 05:30:30;;;;;;;18.63;16.70;;;;;;;8.29;100.00;94592.19;5033107;28;21200;-75
2022/04/24 05:32:58;;;;;;;23.57;17.80;;;;;;;8.33;100.00;94579.81;5033270;28;20428;-75
2022/04/24 05:35:25;;;;;;;20.00;17.70;;;;;;;8.25;100.00;94547.34;5032743;28;20538;-74
2022/04/24 05:37:52;;;;;;;21.53;17.63;;;;;;;8.48;100.00;94589.47;5032806;28;20486;-74
2022/04/24 05:40:19;;;;;;;20.03;17.63;;;;;;;8.47;100.00;94571.38;5050457;28;20535;-74
2022/04/24 05:42:55;;;;;;;26.77;22.63;;;;;;;8.58;100.00;94583.59;5049535;28;21303;-75
2022/04/24 05:45:24;;;;;;;20.00;17.13;;;;;;;8.40;100.00;94550.22;5049363;28;20539;-75
2022/04/24 05:47:56;;;;;;;19.47;16.67;;;;;;;8.34;100.00;94544.50;5029706;28;20447;-74
2022/04/24 05:50:24;;;;;;;24.17;18.90;;;;;;;8.65;100.00;94582.91;5032967;28;20553;-74
2022/04/24 05:52:55;;;;;;;24.83;18.47;;;;;;;8.68;100.00;94602.50;5017066;28;20447;-75
2022/04/24 05:55:23;;;;;;;22.67;18.70;;;;;;;8.61;100.00;94597.16;5051041;28;20432;-74
2022/04/24 05:57:50;;;;;;;21.53;18.33;;;;;;;8.61;100.00;94599.78;5033029;28;20438;-74
2022/04/24 06:00:17;;;;;;;18.13;16.17;;;;;;;8.73;100.00;94629.31;5050848;28;20470;-74
2022/04/24 06:02:49;;;;;;;19.73;16.57;;;;;;;8.73;100.00;94639.88;5033238;28;20562;-74
2022/04/24 06:05:16;;;;;;;20.17;17.27;;;;;;;8.57;100.00;94621.59;5032928;28;20447;-74
2022/04/24 06:07:43;;;;;;;18.73;15.57;;;;;;;8.84;100.00;94655.81;5032840;28;20467;-75
2022/04/24 06:10:11;;;;;;;21.13;18.57;;;;;;;8.50;100.00;94600.41;5032547;28;20467;-74
2022/04/24 06:12:52;;;;;;;21.80;17.67;;;;;;;8.46;100.00;94604.09;5032549;28;20475;-74
2022/04/24 06:15:21;;;;;;;20.07;16.90;;;;;;;8.37;100.00;94593.06;5049032;28;20439;-74
2022/04/24 06:17:52;;;;;;;22.50;18.00;;;;;;;8.60;100.00;94633.28;5032736;28;20466;-74
2022/04/24 06:20:21;;;;;;;20.67;17.50;;;;;;;8.63;100.00;94629.94;5032636;28;20511;-74
2022/04/24 06:22:56;;;;;;;21.10;18.07;;;;;;;8.55;100.00;94636.22;5032670;28;21025;-74
2022/04/24 06:25:24;;;;;;;22.60;17.23;;;;;;;8.50;100.00;94642.53;5052100;28;20441;-75
2022/04/24 06:27:51;;;;;;;22.33;19.07;;;;;;;8.41;100.00;94623.59;5036448;28;20471;-74
2022/04/24 06:30:20;;;;;;;20.37;17.63;;;;;;;8.16;100.00;94598.75;5036636;28;20865;-75
2022/04/24 06:32:47;;;;;;;20.60;18.40;;;;;;;8.44;100.00;94645.84;5036553;28;20466;-75
2022/04/24 06:35:16;;;;;;;20.70;17.47;;;;;;;8.40;100.00;94642.38;5036400;28;20442;-75
2022/04/24 06:37:44;;;;;;;21.93;19.07;;;;;;;8.37;100.00;94657.00;5036713;28;20444;-75
2022/04/24 06:40:13;;;;;;;20.77;18.20;;;;;;;8.20;100.00;94633.78;5036880;28;20484;-75
2022/04/24 06:42:54;;;;;;;19.97;17.90;;;;;;;8.44;100.00;94662.41;5036826;28;20534;-75
2022/04/24 06:45:25;;;;;;;23.53;17.83;;;;;;;8.39;100.00;94664.56;5037170;28;20438;-75
2022/04/24 06:47:53;;;;;;;22.10;17.50;;;;;;;8.28;100.00;94662.50;5039961;28;20446;-75
2022/04/24 06:50:22;;;;;;;21.00;17.90;;;;;;;8.07;100.00;94630.56;5036998;28;21021;-75
2022/04/24 06:53:19;;;;;;;22.47;19.53;;;;;;;8.36;100.00;94683.69;5036393;28;20436;-75
2022/04/24 06:55:47;;;;;;;21.53;19.23;;;;;;;8.39;100.00;94678.47;5036946;28;20427;-74
2022/04/24 06:58:17;;;;;;;24.67;19.30;;;;;;;8.21;100.00;94667.63;5036081;28;20448;-74
2022/04/24 07:00:46;;;;;;;20.90;18.07;;;;;;;8.01;100.00;94639.84;5055769;28;20444;-74
2022/04/24 07:03:31;;;;;;;25.60;19.40;;;;;;;7.95;100.00;94655.19;5043777;28;20491;-74
2022/04/24 07:05:58;;;;;;;22.23;19.93;;;;;;;8.18;100.00;94681.50;5040664;28;20444;-74
2022/04/24 07:08:25;;;;;;;22.50;18.73;;;;;;;8.11;100.00;94686.66;5038536;28;20466;-74
2022/04/24 07:10:55;;;;;;;22.63;17.87;;;;;;;8.14;100.00;94685.94;5056373;28;20936;-75
2022/04/24 07:13:22;;;;;;;20.40;17.90;;;;;;;8.10;100.00;94677.22;5037430;28;20477;-74
2022/04/24 07:15:49;;;;;;;33.80;20.33;;;;;;;8.28;100.00;94699.38;5037970;28;20913;-75
2022/04/24 07:18:16;;;;;;;22.27;19.87;;;;;;;7.45;100.00;94589.66;5037412;28;20444;-75
2022/04/24 07:20:42;;;;;;;24.17;21.00;;;;;;;8.26;100.00;94714.72;5037690;28;20517;-76
2022/04/24 07:23:11;;;;;;;25.33;22.00;;;;;;;8.00;100.00;94683.81;5038466;28;20906;-76
2022/04/24 07:25:43;;;;;;;23.07;19.40;;;;;;;8.05;100.00;94713.59;5039425;28;20500;-74
2022/04/24 07:28:15;;;;;;;25.10;21.60;;;;;;;7.89;100.00;94701.31;5058389;28;20465;-75
2022/04/24 07:30:43;;;;;;;26.83;21.10;;;;;;;7.97;100.00;94702.19;5061036;28;20469;-75
2022/04/24 07:33:10;;;;;;;22.50;18.47;;;;;;;7.90;100.00;94720.50;5055035;28;20426;-74
2022/04/24 07:35:39;;;;;;;26.80;21.13;;;;;;;7.38;100.00;94640.25;5075005;28;20440;-75
2022/04/24 07:38:06;;;;;;;26.50;22.17;;;;;;;7.77;100.00;94709.34;5056607;28;20440;-75
2022/04/24 07:40:36;;;;;;;24.23;19.13;;;;;;;7.76;100.00;94699.94;5070531;28;20474;-76
2022/04/24 07:43:05;;;;;;;24.20;19.77;;;;;;;7.91;100.00;94725.41;5074927;28;20519;-74
2022/04/24 07:45:37;;;;;;;25.70;21.70;;;;;;;7.90;100.00;94736.28;5054365;28;20439;-75
2022/04/24 07:48:06;;;;;;;26.33;21.33;;;;;;;7.85;100.00;94723.38;5059682;28;20435;-75
2022/04/24 07:50:35;;;;;;;30.30;23.17;;;;;;;7.38;100.00;94648.13;5059484;28;20463;-74
2022/04/24 07:53:03;;;;;;;29.30;23.97;;;;;;;7.86;100.00;94717.78;5046220;28;20870;-76
2022/04/24 07:55:30;;;;;;;30.87;23.47;;;;;;;7.89;100.00;94724.22;5019914;28;20522;-76
2022/04/24 07:57:57;;;;;;;27.30;20.87;;;;;;;7.87;100.00;94713.28;5036359;28;20881;-76
2022/04/24 08:00:27;;;;;;;28.80;20.70;;;;;;;7.67;100.00;94718.56;5038414;28;20478;-75
2022/04/24 08:03:02;;;;;;;24.80;19.37;;;;;;;7.80;100.00;94727.06;5037645;28;20837;-75
2022/04/24 08:05:35;;;;;;;32.03;20.47;;;;;;;7.85;100.00;94726.78;5036879;28;20526;-74
2022/04/24 08:08:04;;;;;;;22.80;18.63;;;;;;;7.81;100.00;94725.19;5035205;28;20427;-74
2022/04/24 08:10:33;;;;;;;24.20;19.17;;;;;;;7.53;100.00;94699.13;5054375;28;20824;-73
2022/04/24 08:13:04;;;;;;;25.10;20.20;;;;;;;7.57;100.00;94698.06;5056826;28;20420;-73
2022/04/24 08:15:35;;;;;;;21.13;17.37;;;;;;;7.78;100.00;94725.91;5054897;28;20412;-74
2022/04/24 08:18:03;;;;;;;26.10;19.60;;;;;;;7.77;100.00;94729.63;5045148;28;20427;-74
2022/04/24 08:20:32;;;;;;;30.07;20.47;;;;;;;7.84;100.00;94724.50;5045444;28;20487;-75
2022/04/24 08:23:04;;;;;;;22.43;19.23;;;;;;;8.13;100.00;94737.06;5044689;28;20553;-74
2022/04/24 08:25:34;;;;;;;22.33;19.97;;;;;;;8.10;100.00;94731.75;5036407;28;20483;-74
2022/04/24 08:28:07;;;;;;;21.97;18.07;;;;;;;8.29;100.00;94745.63;5035382;28;20470;-73
2022/04/24 08:30:46;;;;;;;26.03;19.00;;;;;;;8.22;100.00;94732.34;5036894;28;20455;-73
2022/04/24 08:33:13;;;;;;;26.10;19.40;;;;;;;8.33;100.00;94752.84;5036130;28;20907;-73
2022/04/24 08:35:41;;;;;;;26.33;18.97;;;;;;;8.47;100.00;94761.00;5043543;28;20436;-74
2022/04/24 08:38:08;;;;;;;23.93;18.63;;;;;;;8.22;100.00;94734.97;5053026;28;20431;-75
2022/04/24 08:40:35;;;;;;;22.37;18.83;;;;;;;8.61;100.00;94766.50;5045468;28;20489;-74
2022/04/24 08:43:03;;;;;;;21.70;17.00;;;;;;;8.74;100.00;94767.09;5052370;28;20912;-73
2022/04/24 08:45:31;;;;;;;24.63;19.87;;;;;;;8.72;100.00;94767.44;5036111;28;20447;-73
2022/04/24 08:47:58;;;;;;;21.90;18.70;;;;;;;8.59;100.00;94768.72;5037794;28;20467;-73
2022/04/24 08:50:31;;;;;;;27.27;19.63;;;;;;;8.38;100.00;94768.34;5041853;28;20470;-73
2022/04/24 08:52:59;;;;;;;25.30;20.27;;;;;;;8.30;100.00;94770.84;5054532;28;20428;-73
2022/04/24 08:55:27;;;;;;;25.93;19.73;;;;;;;8.38;100.00;94773.63;5043127;28;20435;-73
2022/04/24 08:57:54;;;;;;;27.70;22.70;;;;;;;8.22;100.00;94766.56;5038101;28;20427;-73
2022/04/24 09:00:21;;;;;;;24.93;20.33;;;;;;;7.81;100.00;94720.69;5035033;28;20454;-73
2022/04/24 09:02:50;;;;;;;53.80;43.97;;;;;;;8.15;100.00;94778.84;5034493;28;20459;-73
2022/04/24 09:05:18;;;;;;;20.80;16.53;;;;;;;8.13;100.00;94784.44;5034526;28;20526;-73
2022/04/24 09:07:45;;;;;;;23.23;17.07;;;;;;;8.19;100.00;94793.59;5052601;28;20494;-73
2022/04/24 09:10:33;;;;;;;13.57;12.17;;;;;;;8.07;100.00;94790.34;5047199;28;20507;-74
2022/04/24 09:13:03;;;;;;;13.40;11.10;;;;;;;7.99;100.00;94800.72;5044080;28;20438;-73
2022/04/24 09:15:34;;;;;;;10.50;9.40;;;;;;;7.84;100.00;94782.38;5045545;28;20955;-74
2022/04/24 09:18:02;;;;;;;6.60;6.00;;;;;;;7.50;100.00;94773.44;5046493;28;20477;-73
2022/04/24 09:20:41;;;;;;;6.87;5.63;;;;;;;7.19;100.00;94775.00;5047487;28;20483;-74
2022/04/24 09:23:08;;;;;;;5.40;4.87;;;;;;;7.35;100.00;94804.69;5048078;28;20465;-73
2022/04/24 09:25:40;;;;;;;4.80;4.40;;;;;;;7.15;100.00;94799.72;5047852;28;20466;-73
2022/04/24 09:28:08;;;;;;;5.53;5.03;;;;;;;7.06;100.00;94813.00;5042464;28;20439;-74
2022/04/24 09:30:36;;;;;;;5.50;5.00;;;;;;;7.01;100.00;94806.16;5043832;28;20455;-73
2022/04/24 09:33:07;;;;;;;5.60;5.20;;;;;;;6.85;100.00;94779.16;5053842;28;20431;-73
2022/04/24 09:35:36;;;;;;;5.20;4.70;;;;;;;6.78;100.00;94765.84;5034410;28;20488;-73
2022/04/24 09:38:08;;;;;;;3.90;2.80;;;;;;;6.81;100.00;94794.81;5034857;28;20924;-73
2022/04/24 09:40:43;;;;;;;4.30;3.60;;;;;;;6.71;100.00;94784.06;5020700;28;20518;-73
2022/04/24 09:43:15;;;;;;;3.37;3.03;;;;;;;6.60;100.00;94781.16;5034171;28;20498;-73
2022/04/24 09:45:48;;;;;;;2.63;2.43;;;;;;;6.74;100.00;94797.28;5033826;28;20530;-73
2022/04/24 09:48:19;;;;;;;3.17;2.43;;;;;;;6.66;100.00;94748.28;5030665;28;20832;-73
2022/04/24 09:50:48;;;;;;;2.50;2.30;;;;;;;6.79;100.00;94754.97;5052826;28;20461;-74
2022/04/24 09:53:20;;;;;;;2.27;2.10;;;;;;;6.61;100.00;94742.56;5035821;28;20443;-73
2022/04/24 09:55:51;;;;;;;2.20;2.10;;;;;;;6.87;100.00;94781.44;5053655;28;20457;-73
2022/04/24 09:58:21;;;;;;;3.50;2.60;;;;;;;6.74;100.00;94757.88;5035569;28;20431;-74
2022/04/24 10:00:50;;;;;;;2.33;2.13;;;;;;;6.73;100.00;94766.09;5056142;28;20451;-74
2022/04/24 10:03:18;;;;;;;2.17;1.93;;;;;;;6.90;100.00;94789.38;5026011;28;20494;-73
2022/04/24 10:05:47;;;;;;;1.70;1.60;;;;;;;7.08;100.00;94801.09;5042429;28;20519;-73
2022/04/24 10:08:16;;;;;;;1.63;1.53;;;;;;;7.23;100.00;94793.50;5039661;28;20437;-73
2022/04/24 10:10:48;;;;;;;1.63;1.53;;;;;;;7.36;100.00;94806.22;5057283;28;20500;-73
2022/04/24 10:13:19;;;;;;;2.63;2.43;;;;;;;7.37;100.00;94804.34;5039907;28;20498;-73
2022/04/24 10:16:04;;;;;;;1.90;1.80;;;;;;;7.23;100.00;94777.75;5058133;28;20431;-73
2022/04/24 10:18:56;;;;;;;2.47;2.27;;;;;;;7.20;100.00;94781.78;5040386;28;20431;-73
2022/04/24 10:21:48;;;;;;;3.10;1.97;;;;;;;7.66;100.00;94826.75;5039744;28;20426;-73
2022/04/24 10:24:15;;;;;;;1.83;1.73;;;;;;;7.58;100.00;94820.56;5040642;28;20923;-73
2022/04/24 10:26:53;;;;;;;2.10;1.90;;;;;;;7.85;100.00;94810.97;5024232;28;20457;-73
2022/04/24 10:29:20;;;;;;;1.97;1.80;;;;;;;8.28;100.00;94811.81;5044171;28;20478;-73
2022/04/24 10:31:48;;;;;;;1.90;1.80;;;;;;;8.29;100.00;94803.56;5037475;28;20554;-73
2022/04/24 10:34:20;;;;;;;2.50;2.30;;;;;;;8.68;100.00;94761.38;5037187;28;20470;-73
2022/04/24 10:36:53;;;;;;;1.63;1.50;;;;;;;9.09;100.00;94827.50;5037687;28;20463;-73
2022/04/24 10:39:22;;;;;;;1.97;1.87;;;;;;;9.40;100.00;94831.75;5037325;28;20464;-73
2022/04/24 10:42:06;;;;;;;1.70;1.60;;;;;;;9.77;100.00;94811.53;5039162;28;20449;-74
2022/04/24 10:44:32;;;;;;;2.00;1.80;;;;;;;9.26;100.00;94800.66;5037997;28;20459;-73
2022/04/24 10:47:10;;;;;;;2.53;1.80;;;;;;;9.69;100.00;94806.50;5047530;28;20444;-73
2022/04/24 10:49:37;;;;;;;3.80;2.03;;;;;;;9.38;100.00;94786.50;5036634;28;20979;-73
2022/04/24 10:52:05;;;;;;;1.20;1.10;;;;;;;9.47;100.00;94810.72;5058636;28;20424;-74
2022/04/24 10:54:34;;;;;;;3.20;1.30;;;;;;;9.60;100.00;94819.19;5026652;28;20425;-72
2022/04/24 10:57:15;;;;;;;1.63;1.40;;;;;;;9.55;100.00;94803.69;5031592;28;20469;-72
2022/04/24 10:59:44;;;;;;;1.27;1.17;;;;;;;9.74;100.00;94806.94;5021073;28;20870;-73
2022/04/24 11:02:11;;;;;;;0.83;0.80;;;;;;;9.74;100.00;94795.63;5046111;28;20440;-72
2022/04/24 11:04:40;;;;;;;1.80;1.60;;;;;;;9.76;100.00;94790.78;5041699;28;20489;-73
2022/04/24 11:07:21;;;;;;;1.20;1.10;;;;;;;9.22;100.00;94810.41;5038564;28;20423;-73
2022/04/24 11:09:48;;;;;;;1.40;1.30;;;;;;;9.30;100.00;94806.72;5036372;28;20459;-73
2022/04/24 11:12:15;;;;;;;2.10;1.90;;;;;;;9.46;100.00;94817.13;5036052;28;20949;-73
2022/04/24 11:14:42;;;;;;;1.47;1.37;;;;;;;9.50;100.00;94786.28;5036539;28;20440;-73
2022/04/24 11:17:09;;;;;;;1.43;1.27;;;;;;;9.66;100.00;94817.78;5037077;28;20439;-72
2022/04/24 11:19:38;;;;;;;1.67;1.47;;;;;;;9.43;100.00;94821.22;5037075;28;20468;-73
2022/04/24 11:22:10;;;;;;;1.33;1.23;;;;;;;9.45;100.00;94816.34;5036909;28;20487;-72
2022/04/24 11:24:38;;;;;;;2.27;1.87;;;;;;;9.51;100.00;94805.53;5020202;28;20471;-72
2022/04/24 11:27:15;;;;;;;2.83;2.17;;;;;;;9.51;100.00;94789.69;5038650;28;20785;-72